Time;durP1;ratioP1;P1;durP2;ratioP2;P2;SDS_P1;SDS_P2;PMS_P1;PMS_P2;Temp;Humidity;BMP_temperature;BMP_pressure;BME280_temperature;BME280_humidity;BME280_pressure;Samples;Min_cycle;Max_cycle;Signal;HPM_P1;HPM_P2
2021/05/05 00:02:11;;;;;;;3.33;2.00;;;13.10;61.10;;;11.80;59.52;94873.81;5030661;28;20068;-66
2021/05/05 00:04:37;;;;;;;4.68;2.13;;;13.10;61.40;;;11.78;58.91;94868.75;5045802;28;20086;-66
2021/05/05 00:07:02;;;;;;;3.35;2.33;;;13.10;61.40;;;11.79;59.32;94874.81;5044956;28;20049;-65
2021/05/05 00:09:28;;;;;;;4.35;2.35;;;13.20;61.30;;;11.78;59.89;94867.94;5011748;28;20112;-65
2021/05/05 00:11:54;;;;;;;3.28;2.35;;;13.10;61.40;;;11.78;58.89;94873.19;5026447;28;20086;-65
2021/05/05 00:14:20;;;;;;;4.82;2.08;;;13.20;61.40;;;11.79;59.63;94870.38;5013854;28;20080;-66
2021/05/05 00:16:46;;;;;;;4.25;2.20;;;13.20;61.60;;;11.80;58.95;94879.88;5013661;28;20060;-65
2021/05/05 00:19:13;;;;;;;2.60;2.22;;;13.30;61.60;;;11.79;59.25;94880.91;5027941;28;20079;-65
2021/05/05 00:21:38;;;;;;;3.90;2.35;;;13.30;61.70;;;11.79;60.07;94869.56;5009117;28;20139;-65
2021/05/05 00:24:05;;;;;;;3.05;2.20;;;13.30;61.60;;;11.81;59.05;94867.50;5032745;28;20591;-65
2021/05/05 00:26:30;;;;;;;3.50;2.40;;;13.30;61.70;;;11.81;59.21;94872.78;5012584;28;20101;-64
2021/05/05 00:28:56;;;;;;;3.28;2.22;;;13.30;61.90;;;11.78;60.01;94868.75;5028726;28;20057;-65
2021/05/05 00:31:22;;;;;;;4.55;2.53;;;13.30;62.10;;;11.75;60.66;94869.16;5012471;28;20033;-65
2021/05/05 00:33:48;;;;;;;5.00;2.28;;;13.20;62.50;;;11.71;60.35;94865.38;4994480;28;20071;-65
2021/05/05 00:36:13;;;;;;;3.90;2.28;;;13.10;62.90;;;11.71;60.21;94856.66;5008848;28;20037;-65
2021/05/05 00:38:40;;;;;;;4.03;2.45;;;13.10;63.00;;;11.71;60.35;94857.47;5009487;28;20523;-65
2021/05/05 00:41:09;;;;;;;4.75;2.53;;;13.10;63.10;;;11.69;61.26;94842.91;5011329;28;20029;-65
2021/05/05 00:43:35;;;;;;;3.78;2.70;;;13.10;63.30;;;11.63;60.38;94829.63;5013163;28;20579;-65
2021/05/05 00:46:01;;;;;;;3.88;2.50;;;13.00;63.60;;;11.62;61.09;94838.56;4996667;28;20043;-65
2021/05/05 00:48:27;;;;;;;4.45;2.42;;;13.10;63.60;;;11.61;61.12;94836.97;4995831;28;20454;-65
2021/05/05 00:50:53;;;;;;;3.03;2.33;;;13.10;63.20;;;11.60;61.60;94835.34;5027876;28;20033;-65
2021/05/05 00:53:19;;;;;;;3.83;2.45;;;13.00;63.70;;;11.56;61.09;94831.56;5027434;28;20045;-65
2021/05/05 00:55:45;;;;;;;4.10;2.38;;;12.90;63.90;;;11.54;61.36;94835.44;5043115;28;20126;-66
2021/05/05 00:58:11;;;;;;;3.65;2.50;;;12.90;64.20;;;11.52;61.91;94826.97;5012988;28;20029;-65
2021/05/05 01:00:36;;;;;;;5.50;2.80;;;12.90;64.40;;;11.48;61.31;94826.63;5013313;28;20174;-64
2021/05/05 01:03:02;;;;;;;3.75;2.60;;;12.70;64.70;;;11.45;62.14;94827.06;5028432;28;20116;-65
2021/05/05 01:05:28;;;;;;;4.13;2.72;;;12.80;65.00;;;11.43;62.19;94823.88;5009259;28;20032;-65
2021/05/05 01:07:54;;;;;;;3.17;2.40;;;12.70;65.00;;;11.40;61.84;94819.06;5045405;28;20069;-65
2021/05/05 01:10:19;;;;;;;3.78;2.55;;;12.80;64.90;;;11.41;61.91;94819.84;5024268;28;20061;-66
2021/05/05 01:12:45;;;;;;;4.38;2.60;;;12.70;65.00;;;11.38;61.82;94821.09;5012198;28;20037;-66
2021/05/05 01:15:13;;;;;;;4.03;2.80;;;12.70;65.40;;;11.35;62.39;94811.03;4994890;28;20037;-66
2021/05/05 01:17:39;;;;;;;4.68;2.92;;;12.70;65.40;;;11.34;62.49;94819.97;5010198;28;20071;-66
2021/05/05 01:20:05;;;;;;;3.42;2.97;;;12.70;65.30;;;11.31;62.22;94809.84;5010979;28;20033;-65
2021/05/05 01:22:31;;;;;;;4.82;3.00;;;12.60;65.20;;;11.31;62.20;94820.38;5009551;28;20040;-66
2021/05/05 01:24:56;;;;;;;4.70;3.10;;;12.70;65.40;;;11.30;62.67;94824.03;5010699;28;20029;-65
2021/05/05 01:27:22;;;;;;;4.20;3.00;;;12.70;65.70;;;11.28;62.89;94821.63;5043413;28;20040;-66
2021/05/05 01:29:48;;;;;;;3.92;2.70;;;12.70;65.70;;;11.26;63.13;94817.63;5019132;28;20184;-66
2021/05/05 01:32:15;;;;;;;4.47;2.72;;;12.60;66.30;;;11.24;62.84;94809.16;4995038;28;20487;-66
2021/05/05 01:34:41;;;;;;;4.25;3.30;;;12.60;66.40;;;11.23;62.69;94818.06;5009209;28;20174;-66
2021/05/05 01:37:07;;;;;;;4.35;3.00;;;12.60;66.80;;;11.19;63.91;94816.94;5023592;28;20116;-65
2021/05/05 01:39:32;;;;;;;4.13;3.10;;;12.50;67.70;;;11.17;63.49;94813.72;5007256;28;20032;-65
2021/05/05 01:41:58;;;;;;;4.50;3.10;;;12.50;67.10;;;11.16;63.75;94817.38;4996924;28;20048;-65
2021/05/05 01:44:39;;;;;;;4.28;3.00;;;12.60;67.30;;;11.14;65.35;94816.78;5005498;28;20021;-65
2021/05/05 01:47:08;;;;;;;3.95;2.78;;;12.50;66.90;;;11.10;63.76;94818.28;5027576;28;20033;-66
2021/05/05 01:49:34;;;;;;;3.78;3.10;;;12.50;67.20;;;11.09;64.42;94816.63;4996537;28;20036;-66
2021/05/05 01:52:03;;;;;;;3.65;2.63;;;12.50;67.30;;;11.09;65.09;94814.84;4993421;28;20038;-65
2021/05/05 01:54:29;;;;;;;3.97;2.67;;;12.60;66.90;;;11.11;63.19;94810.16;5025556;28;20035;-66
2021/05/05 01:57:19;;;;;;;5.78;2.75;;;12.60;67.00;;;11.12;66.32;94811.75;5011776;28;20040;-66
2021/05/05 01:59:45;;;;;;;5.72;2.97;;;12.60;66.90;;;11.09;63.88;94817.47;5044989;28;20043;-66
2021/05/05 02:02:11;;;;;;;3.95;2.97;;;12.50;67.00;;;11.07;63.63;94818.69;5025967;28;20056;-65
2021/05/05 02:04:36;;;;;;;3.53;2.78;;;12.50;67.50;;;11.07;64.93;94808.16;5010027;28;20034;-65
2021/05/05 02:07:02;;;;;;;4.32;3.20;;;12.40;67.60;;;11.06;65.00;94817.91;5025443;28;20154;-66
2021/05/05 02:09:28;;;;;;;4.82;2.90;;;12.50;67.50;;;11.08;63.74;94804.50;5012348;28;20036;-65
2021/05/05 02:11:54;;;;;;;4.90;2.83;;;12.60;67.50;;;11.09;65.19;94793.78;5026218;28;20444;-66
2021/05/05 02:14:19;;;;;;;3.75;3.10;;;12.60;67.80;;;11.07;65.69;94795.81;4995782;28;20130;-65
2021/05/05 02:16:45;;;;;;;4.70;3.20;;;12.60;68.70;;;11.02;65.84;94796.50;5011689;28;20049;-66
2021/05/05 02:19:14;;;;;;;4.07;3.20;;;12.40;69.30;;;10.93;65.85;94784.69;4995087;28;20065;-66
2021/05/05 02:21:39;;;;;;;5.97;3.33;;;12.10;70.50;;;10.89;65.54;94774.84;4991741;28;20563;-66
2021/05/05 02:24:06;;;;;;;5.18;3.28;;;12.20;70.80;;;10.85;66.37;94779.72;5028761;28;20033;-66
2021/05/05 02:26:32;;;;;;;4.70;3.17;;;12.20;71.30;;;10.80;66.12;94769.06;5024839;28;20037;-65
2021/05/05 02:28:58;;;;;;;4.75;3.08;;;12.20;71.10;;;10.78;66.97;94775.56;5015354;28;20129;-66
2021/05/05 02:31:24;;;;;;;3.88;2.90;;;12.10;71.10;;;10.71;66.47;94773.03;4992651;28;20037;-65
2021/05/05 02:33:49;;;;;;;6.22;3.08;;;12.00;72.50;;;10.67;67.09;94772.69;5009398;28;20091;-66
2021/05/05 02:36:15;;;;;;;6.95;3.40;;;11.90;72.10;;;10.62;66.85;94776.97;5009600;28;20056;-66
2021/05/05 02:38:41;;;;;;;6.28;3.40;;;11.90;72.80;;;10.56;67.37;94769.97;5010344;28;20036;-65
2021/05/05 02:41:06;;;;;;;4.60;3.05;;;11.80;72.80;;;10.50;67.89;94773.50;5012298;28;20044;-65
2021/05/05 02:43:32;;;;;;;5.43;3.10;;;11.70;73.60;;;10.45;67.97;94762.84;5014215;28;20060;-65
2021/05/05 02:45:58;;;;;;;4.53;3.17;;;11.60;73.40;;;10.40;67.68;94764.28;4997198;28;20473;-65
2021/05/05 02:48:24;;;;;;;4.45;3.20;;;11.60;74.10;;;10.39;69.21;94765.31;4999609;28;20481;-65
2021/05/05 02:50:49;;;;;;;4.68;3.40;;;11.70;75.00;;;10.38;69.08;94774.22;5045909;28;20055;-65
2021/05/05 02:53:15;;;;;;;4.47;3.78;;;11.70;75.20;;;10.33;69.29;94770.66;5028529;28;20394;-66
2021/05/05 02:55:41;;;;;;;4.18;3.55;;;11.60;75.90;;;10.24;70.44;94761.47;5043334;28;20025;-66
2021/05/05 02:58:06;;;;;;;4.32;3.17;;;11.30;77.40;;;10.11;70.65;94757.94;5015622;28;20055;-65
2021/05/05 03:00:32;;;;;;;5.55;3.60;;;11.20;77.50;;;10.04;70.68;94745.88;4997239;28;20041;-65
2021/05/05 03:02:58;;;;;;;6.40;3.55;;;11.10;78.70;;;9.97;71.00;94739.91;5031087;28;20061;-65
2021/05/05 03:05:24;;;;;;;5.03;3.60;;;11.10;79.20;;;9.91;71.94;94741.56;5014048;28;20025;-65
2021/05/05 03:07:49;;;;;;;5.32;3.92;;;11.10;79.90;;;9.85;72.21;94728.50;5048690;28;20515;-65
2021/05/05 03:10:15;;;;;;;5.75;3.88;;;11.00;80.20;;;9.79;72.40;94723.13;5014069;28;20111;-65
2021/05/05 03:12:41;;;;;;;5.53;3.88;;;11.00;80.60;;;9.73;72.25;94721.38;5014839;28;20593;-65
2021/05/05 03:15:08;;;;;;;7.47;4.25;;;10.90;80.80;;;9.69;73.27;94728.03;4998947;28;20453;-65
2021/05/05 03:17:34;;;;;;;5.32;3.75;;;11.00;80.80;;;9.71;72.82;94733.06;4998474;28;20029;-67
2021/05/05 03:19:59;;;;;;;5.03;3.97;;;11.00;80.60;;;9.67;73.48;94727.47;5013674;28;20037;-65
2021/05/05 03:22:25;;;;;;;7.00;4.32;;;11.00;80.60;;;9.69;73.60;94725.41;5029258;28;20035;-65
2021/05/05 03:24:51;;;;;;;5.18;4.15;;;11.10;80.30;;;9.73;73.44;94725.78;5006611;28;20033;-66
2021/05/05 03:27:16;;;;;;;5.70;4.10;;;11.20;80.00;;;9.71;73.51;94736.50;5001947;28;20506;-65
2021/05/05 03:29:42;;;;;;;4.97;2.72;;;11.10;80.10;;;9.67;73.48;94730.09;5013749;28;20057;-65
2021/05/05 03:32:08;;;;;;;3.00;2.25;;;10.90;79.20;;;9.63;73.28;94743.88;5012445;28;20025;-64
2021/05/05 03:34:34;;;;;;;4.30;2.40;;;11.00;78.10;;;9.61;73.28;94727.53;5030971;28;20045;-66
2021/05/05 03:36:59;;;;;;;2.13;1.40;;;11.00;77.70;;;9.53;72.75;94736.50;5026902;28;20052;-65
2021/05/05 03:39:25;;;;;;;2.50;1.40;;;10.80;76.30;;;9.44;72.82;94729.91;5048590;28;20726;-65
2021/05/05 03:41:51;;;;;;;5.32;2.03;;;10.80;76.70;;;9.36;72.61;94738.06;5023906;28;20041;-65
2021/05/05 03:44:16;;;;;;;2.67;1.38;;;10.70;76.40;;;9.30;72.27;94749.41;5028862;28;20053;-66
2021/05/05 03:46:42;;;;;;;1.73;1.05;;;10.70;76.10;;;9.24;71.82;94760.72;4998909;28;20115;-65
2021/05/05 03:49:09;;;;;;;0.90;0.80;;;10.60;75.90;;;9.19;71.90;94759.56;4992942;28;20037;-64
2021/05/05 03:51:34;;;;;;;2.72;1.40;;;10.60;75.70;;;9.14;72.19;94759.41;5023836;28;20491;-69
2021/05/05 03:54:00;;;;;;;3.03;1.30;;;10.50;76.50;;;9.03;72.10;94761.88;5024133;28;20053;-64
2021/05/05 03:56:26;;;;;;;1.42;1.00;;;10.40;76.60;;;8.94;72.65;94756.09;5014552;28;20033;-65
2021/05/05 03:58:51;;;;;;;1.20;0.70;;;10.30;76.80;;;8.87;72.28;94766.63;5014954;28;20126;-65
2021/05/05 04:01:17;;;;;;;2.15;0.70;;;10.20;76.50;;;8.82;72.21;94773.50;5015772;28;20055;-65
2021/05/05 04:03:43;;;;;;;1.58;0.80;;;10.20;76.50;;;8.76;72.20;94774.34;5030524;28;20045;-65
2021/05/05 04:06:09;;;;;;;2.28;0.82;;;10.20;76.90;;;8.67;72.42;94789.53;4998530;28;20029;-65
2021/05/05 04:08:34;;;;;;;1.38;0.70;;;10.00;77.40;;;8.62;72.54;94772.81;5012969;28;20559;-65
2021/05/05 04:11:00;;;;;;;1.80;0.80;;;9.90;77.60;;;8.59;72.79;94774.81;5038265;28;20512;-65
2021/05/05 04:13:26;;;;;;;1.75;0.68;;;10.10;77.30;;;8.60;73.03;94775.66;5011528;28;20052;-65
2021/05/05 04:15:51;;;;;;;1.13;0.68;;;10.10;77.10;;;8.56;72.96;94782.31;4981707;28;20033;-64
2021/05/05 04:18:17;;;;;;;1.48;0.60;;;10.10;77.00;;;8.50;72.51;94773.47;4998319;28;20372;-65
2021/05/05 04:20:43;;;;;;;2.03;0.50;;;10.00;77.10;;;8.43;72.71;94779.75;5006433;28;20094;-65
2021/05/05 04:23:09;;;;;;;2.28;0.70;;;9.80;76.50;;;8.39;72.52;94791.66;5031021;28;20420;-64
2021/05/05 04:25:34;;;;;;;0.95;0.50;;;9.90;76.20;;;8.36;72.82;94798.09;5013013;28;20619;-65
2021/05/05 04:28:00;;;;;;;1.17;0.50;;;9.90;76.50;;;8.35;72.88;94799.13;5010482;28;20579;-64
2021/05/05 04:30:26;;;;;;;1.45;0.60;;;9.90;76.30;;;8.33;72.55;94806.34;5002603;28;20033;-65
2021/05/05 04:32:52;;;;;;;0.82;0.50;;;9.90;76.30;;;8.32;72.48;94819.66;5006206;28;20509;-65
2021/05/05 04:35:19;;;;;;;1.23;0.70;;;9.90;76.20;;;8.24;73.29;94825.94;5029623;28;20583;-64
2021/05/05 04:37:45;;;;;;;1.10;0.60;;;9.70;77.20;;;8.24;73.18;94828.56;4996310;28;20116;-64
2021/05/05 04:40:11;;;;;;;6.63;1.23;;;9.70;77.00;;;8.21;72.66;94836.81;5030329;28;20025;-64
2021/05/05 04:42:37;;;;;;;2.08;0.90;;;9.60;77.00;;;8.19;72.92;94839.66;5013609;28;20098;-64
2021/05/05 04:45:04;;;;;;;2.72;1.20;;;9.80;77.00;;;8.16;73.46;94842.69;4997666;28;20131;-65
2021/05/05 04:47:31;;;;;;;1.67;0.80;;;9.60;77.60;;;8.12;73.18;94851.13;5013606;28;20071;-65
2021/05/05 04:49:57;;;;;;;3.17;1.10;;;9.50;77.30;;;8.08;73.50;94855.16;4997364;28;20060;-65
2021/05/05 04:52:23;;;;;;;2.00;0.60;;;9.50;77.80;;;8.04;73.54;94870.47;5030107;28;20033;-64
2021/05/05 04:54:48;;;;;;;4.05;0.80;;;9.40;77.70;;;8.00;72.67;94869.28;5047589;28;20128;-64
2021/05/05 04:57:14;;;;;;;2.70;1.33;;;9.30;77.70;;;7.93;73.53;94871.09;5016765;28;20021;-65
2021/05/05 04:59:40;;;;;;;2.90;1.02;;;9.40;77.70;;;7.94;73.54;94886.63;5029259;28;20032;-64
2021/05/05 05:02:07;;;;;;;2.38;0.75;;;9.50;77.30;;;7.90;73.51;94889.81;5030589;28;20029;-65
2021/05/05 05:04:37;;;;;;;2.08;0.70;;;9.40;77.30;;;7.90;73.16;94897.66;5013534;28;20033;-65
2021/05/05 05:07:03;;;;;;;3.45;0.70;;;9.40;76.90;;;7.87;73.11;94904.13;5043152;28;20061;-65
2021/05/05 05:09:28;;;;;;;2.70;0.80;;;9.40;76.50;;;7.84;73.17;94901.91;5031555;28;20048;-65
2021/05/05 05:11:54;;;;;;;4.45;2.45;;;9.50;76.70;;;7.81;73.39;94906.75;5012137;28;20036;-65
2021/05/05 05:14:20;;;;;;;9.65;1.70;;;9.40;76.10;;;7.76;72.90;94899.50;5029910;28;20041;-65
2021/05/05 05:16:46;;;;;;;3.10;1.10;;;9.40;75.70;;;7.71;72.84;94912.38;5013366;28;20037;-66
2021/05/05 05:19:11;;;;;;;2.25;0.57;;;9.30;75.90;;;7.68;73.32;94918.78;5030366;28;20085;-66
2021/05/05 05:21:37;;;;;;;3.65;0.63;;;9.20;75.60;;;7.61;72.80;94938.13;5029781;28;20699;-66
2021/05/05 05:24:04;;;;;;;2.45;0.40;;;9.20;74.50;;;7.58;73.00;94938.53;5027091;28;20041;-65
2021/05/05 05:26:29;;;;;;;3.75;0.60;;;9.10;74.50;;;7.55;72.84;94954.63;5045429;28;20040;-65
2021/05/05 05:28:55;;;;;;;1.45;0.50;;;9.10;74.50;;;7.47;72.60;94952.16;4995762;28;20033;-65
2021/05/05 05:31:21;;;;;;;2.28;0.47;;;8.90;74.50;;;7.42;72.30;94944.13;4988917;28;20135;-65
2021/05/05 05:33:47;;;;;;;2.25;1.10;;;8.90;74.80;;;7.38;72.50;94939.28;5008870;28;20049;-63
2021/05/05 05:36:12;;;;;;;2.45;0.80;;;9.00;75.00;;;7.40;72.02;94943.50;5007859;28;20040;-63
2021/05/05 05:38:38;;;;;;;4.05;0.85;;;9.00;74.00;;;7.37;72.85;94936.88;4996046;28;20029;-63
2021/05/05 05:41:04;;;;;;;3.72;0.80;;;9.00;74.80;;;7.36;72.17;94928.22;5029883;28;20577;-63
2021/05/05 05:43:29;;;;;;;3.50;1.00;;;9.00;74.70;;;7.34;72.10;94922.38;5026626;28;20045;-63
2021/05/05 05:45:55;;;;;;;2.97;0.82;;;9.00;74.50;;;7.32;72.59;94921.75;4991799;28;20037;-71
2021/05/05 05:48:21;;;;;;;2.88;0.60;;;9.00;74.50;;;7.32;72.38;94913.13;5047354;28;20033;-64
2021/05/05 05:50:47;;;;;;;1.63;0.57;;;9.00;74.50;;;7.31;72.52;94920.16;5014274;28;20123;-63
2021/05/05 05:53:12;;;;;;;1.67;0.40;;;8.90;74.50;;;7.32;72.05;94931.41;5011942;28;20177;-64
2021/05/05 05:55:41;;;;;;;2.17;0.68;;;9.00;74.80;;;7.32;72.55;94940.06;5023812;28;20111;-64
2021/05/05 05:58:07;;;;;;;2.65;0.52;;;9.00;75.00;;;7.27;72.63;94942.47;5005506;28;20030;-64
2021/05/05 06:00:32;;;;;;;2.83;0.88;;;8.90;74.70;;;7.27;72.61;94958.19;4993128;28;20057;-64
2021/05/05 06:02:58;;;;;;;3.42;0.50;;;8.90;75.20;;;7.24;72.24;94968.19;5003740;28;20649;-67
2021/05/05 06:05:24;;;;;;;1.58;0.50;;;8.90;75.50;;;7.23;72.94;94980.47;5012255;28;20048;-64
2021/05/05 06:07:50;;;;;;;1.70;0.65;;;8.90;76.10;;;7.22;72.71;94991.94;5028304;28;20080;-63
2021/05/05 06:10:15;;;;;;;3.53;1.35;;;8.90;76.20;;;7.22;72.84;95005.00;5047018;28;20060;-64
2021/05/05 06:12:41;;;;;;;1.38;0.80;;;8.80;75.80;;;7.18;73.33;94995.94;4995488;28;20064;-68
2021/05/05 06:15:09;;;;;;;2.03;0.75;;;8.80;76.10;;;7.16;72.90;94974.41;5028575;28;20143;-63
2021/05/05 06:17:34;;;;;;;1.90;0.60;;;8.80;76.00;;;7.15;73.17;94974.59;5031912;28;20457;-67
2021/05/05 06:20:00;;;;;;;1.90;0.65;;;8.70;76.20;;;7.13;72.41;94974.81;5016745;28;20033;-63
2021/05/05 06:22:26;;;;;;;2.30;0.50;;;8.70;74.90;;;7.13;72.89;94980.03;5048947;28;20060;-63
2021/05/05 06:24:52;;;;;;;1.55;0.50;;;8.80;75.50;;;7.09;73.25;94997.13;4999590;28;20037;-63
2021/05/05 06:27:17;;;;;;;1.85;0.80;;;8.70;75.50;;;7.02;72.60;95001.53;5050596;28;20033;-68
2021/05/05 06:29:43;;;;;;;4.25;1.27;;;8.50;76.30;;;7.00;72.72;95011.34;5013205;28;20136;-63
2021/05/05 06:32:09;;;;;;;3.80;1.10;;;8.50;76.20;;;6.95;72.69;95021.56;5032173;28;20063;-67
2021/05/05 06:34:34;;;;;;;3.65;0.70;;;8.50;76.20;;;6.93;73.01;95029.59;4983129;28;20685;-62
2021/05/05 06:37:03;;;;;;;1.40;0.60;;;8.50;76.30;;;6.92;73.18;95035.03;5050614;28;20453;-62
2021/05/05 06:39:29;;;;;;;5.35;2.83;;;8.60;76.50;;;6.92;72.89;95046.28;5015272;28;20112;-63
2021/05/05 06:41:55;;;;;;;5.20;1.95;;;8.50;76.40;;;6.89;73.33;95048.47;5040282;28;20394;-65
2021/05/05 06:44:21;;;;;;;3.83;0.85;;;8.60;76.90;;;6.88;74.02;95044.25;5014434;28;20048;-67
2021/05/05 06:46:49;;;;;;;1.75;1.00;;;8.60;76.80;;;6.86;74.10;95043.66;5024897;28;20065;-66
2021/05/05 06:49:14;;;;;;;3.60;1.40;;;8.40;77.10;;;6.78;73.79;95047.19;5011252;28;20033;-68
2021/05/05 06:51:40;;;;;;;2.80;0.93;;;8.20;77.30;;;6.73;73.93;95050.38;5031110;28;20082;-68
2021/05/05 06:54:07;;;;;;;1.52;0.80;;;8.20;77.80;;;6.72;73.66;95051.38;5032195;28;20633;-68
2021/05/05 06:56:32;;;;;;;4.65;1.10;;;8.20;78.00;;;6.70;74.40;95049.97;5015466;28;20112;-65
2021/05/05 06:58:58;;;;;;;3.67;1.02;;;8.20;78.50;;;6.69;73.84;95053.56;5032136;28;20539;-68
2021/05/05 07:01:24;;;;;;;3.25;0.70;;;8.20;77.70;;;6.65;74.43;95057.56;4983636;28;20041;-67
2021/05/05 07:03:50;;;;;;;3.80;1.60;;;8.20;78.30;;;6.66;74.29;95060.00;4998683;28;20090;-68
2021/05/05 07:06:15;;;;;;;4.03;1.65;;;8.20;78.50;;;6.66;74.74;95060.00;5048624;28;20033;-67
2021/05/05 07:08:41;;;;;;;4.03;0.88;;;8.20;77.80;;;6.71;74.91;95052.38;5032319;28;20099;-68
2021/05/05 07:11:07;;;;;;;1.67;0.63;;;8.30;77.40;;;6.74;73.80;95041.53;4998962;28;20503;-67
2021/05/05 07:13:33;;;;;;;2.85;0.88;;;8.50;77.30;;;6.80;74.35;95036.56;5014674;28;20374;-67
2021/05/05 07:15:59;;;;;;;2.50;1.30;;;8.60;76.80;;;6.90;74.56;95040.44;5011216;28;20029;-65
2021/05/05 07:18:25;;;;;;;2.75;1.52;;;8.80;76.70;;;7.01;74.15;95044.31;5030739;28;20043;-67
2021/05/05 07:20:51;;;;;;;1.88;1.13;;;8.80;76.50;;;7.06;74.48;95042.75;5015420;28;20052;-68
2021/05/05 07:23:16;;;;;;;3.17;1.00;;;8.80;76.80;;;7.15;74.75;95043.41;5031873;28;20468;-69
2021/05/05 07:25:42;;;;;;;2.92;0.77;;;9.00;76.10;;;7.23;74.19;95045.03;5014655;28;20033;-68
2021/05/05 07:28:08;;;;;;;4.53;0.80;;;9.10;75.40;;;7.31;74.48;95045.69;5014924;28;20051;-67
2021/05/05 07:30:34;;;;;;;1.48;0.65;;;9.20;75.60;;;7.38;74.10;95038.69;5014485;28;20025;-64
2021/05/05 07:32:59;;;;;;;1.63;0.77;;;9.10;74.60;;;7.44;74.02;95044.13;4998923;28;20033;-67
2021/05/05 07:35:26;;;;;;;3.35;0.80;;;9.20;75.20;;;7.47;74.50;95043.72;5007684;28;20045;-65
2021/05/05 07:48:07;;;;;;;2.55;0.98;;;9.60;74.40;;;7.88;73.16;95038.44;5044773;28;20040;-69
2021/05/05 07:50:33;;;;;;;0.93;0.50;;;9.80;71.50;;;7.97;73.40;95043.31;5031537;28;20408;-70
2021/05/05 07:53:00;;;;;;;1.02;0.57;;;9.90;72.90;;;8.12;72.77;95044.94;5014908;28;20056;-69
2021/05/05 07:55:26;;;;;;;2.38;1.25;;;10.10;72.10;;;8.16;72.61;95056.66;5031409;28;20485;-70
2021/05/05 07:57:51;;;;;;;2.58;1.40;;;10.00;72.10;;;8.24;72.86;95052.00;4997181;28;20049;-68
2021/05/05 08:00:18;;;;;;;0.90;0.50;;;10.20;71.80;;;8.40;72.44;95047.44;5028585;28;20639;-67
2021/05/05 08:02:44;;;;;;;1.15;0.45;;;10.50;70.90;;;8.58;72.67;95039.75;5014419;28;20032;-66
2021/05/05 08:05:10;;;;;;;2.30;0.40;;;10.90;71.10;;;8.76;71.52;95054.88;5014619;28;20044;-70
2021/05/05 08:07:36;;;;;;;0.95;0.50;;;10.80;68.60;;;8.83;71.82;95056.50;4997257;28;20776;-67
2021/05/05 08:10:04;;;;;;;1.98;0.60;;;10.70;69.60;;;8.84;71.09;95054.69;5014364;28;20037;-66
2021/05/05 08:12:30;;;;;;;1.55;0.60;;;10.50;70.30;;;8.85;71.39;95056.28;4991902;28;20577;-69
2021/05/05 08:14:55;;;;;;;1.27;0.50;;;10.50;71.80;;;8.92;71.56;95057.06;5029697;28;20053;-68
2021/05/05 08:17:21;;;;;;;0.65;0.50;;;10.80;71.00;;;9.06;71.45;95048.19;5002546;28;20084;-68
2021/05/05 08:19:47;;;;;;;0.85;0.32;;;11.10;69.40;;;9.17;70.98;95060.66;5040952;28;20099;-68
2021/05/05 08:22:13;;;;;;;0.28;0.20;;;11.10;66.40;;;9.28;70.66;95061.03;5030405;28;20672;-65
2021/05/05 08:24:38;;;;;;;4.07;1.58;;;11.30;67.00;;;9.38;70.51;95066.66;4997972;28;20052;-67
2021/05/05 08:27:04;;;;;;;1.70;0.63;;;11.30;65.70;;;9.42;69.10;95079.16;5030687;28;20037;-68
2021/05/05 08:29:31;;;;;;;0.70;0.50;;;11.10;65.80;;;9.47;68.73;95096.91;5013858;28;20076;-69
2021/05/05 08:31:58;;;;;;;1.30;0.30;;;11.10;67.40;;;9.46;68.77;95103.97;5013193;28;20041;-69
2021/05/05 08:34:25;;;;;;;0.73;0.28;;;11.00;67.30;;;9.47;68.34;95107.41;4996171;28;20033;-68
2021/05/05 08:36:55;;;;;;;0.77;0.30;;;11.20;67.90;;;9.44;68.14;95102.56;5034121;28;20033;-64
2021/05/05 08:39:21;;;;;;;0.38;0.22;;;11.00;67.60;;;9.41;68.29;95116.13;4999196;28;20505;-70
2021/05/05 08:41:47;;;;;;;0.40;0.20;;;10.80;67.40;;;9.34;68.12;95117.94;5012423;28;20052;-70
2021/05/05 08:44:13;;;;;;;1.27;0.50;;;10.80;68.00;;;9.26;68.62;95111.09;5014159;28;20052;-68
2021/05/05 08:46:40;;;;;;;0.30;0.20;;;10.60;68.10;;;9.17;68.07;95107.06;5016355;28;20404;-67
2021/05/05 08:49:05;;;;;;;0.47;0.20;;;10.60;68.20;;;9.12;68.69;95105.06;5014144;28;20040;-64
2021/05/05 08:51:31;;;;;;;4.03;1.65;;;10.60;69.40;;;9.12;68.29;95099.81;5014850;28;20029;-63
2021/05/05 08:53:57;;;;;;;1.08;0.40;;;10.70;68.40;;;9.01;68.15;95097.81;5012868;28;20048;-62
2021/05/05 08:56:23;;;;;;;0.98;0.30;;;10.40;69.00;;;8.99;68.57;95099.81;4981441;28;20349;-62
2021/05/05 08:58:49;;;;;;;1.27;0.20;;;10.40;69.20;;;8.95;68.76;95103.88;5047477;28;20128;-63
2021/05/05 09:01:14;;;;;;;0.98;0.30;;;10.40;70.00;;;8.89;68.92;95099.44;5009244;28;20037;-63
2021/05/05 09:03:43;;;;;;;0.77;0.30;;;10.30;70.20;;;8.89;68.48;95104.69;5011301;28;20040;-63
2021/05/05 09:06:08;;;;;;;0.60;0.30;;;10.40;69.80;;;8.85;69.27;95111.34;4997664;28;20025;-64
2021/05/05 09:08:35;;;;;;;6.18;0.80;;;10.40;70.90;;;8.82;69.68;95104.66;4980371;28;20131;-68
2021/05/05 09:11:09;;;;;;;1.98;0.80;;;10.40;71.00;;;8.94;69.64;95106.69;4997271;28;20033;-68
2021/05/05 09:13:51;;;;;;;1.20;0.50;;;10.60;70.00;;;8.97;69.74;95112.34;5031772;28;20036;-67
2021/05/05 09:16:29;;;;;;;2.22;0.52;;;10.60;70.10;;;9.01;69.25;95100.44;5045510;28;20027;-64
2021/05/05 09:19:05;;;;;;;1.35;0.47;;;10.60;69.20;;;9.08;69.30;95103.06;5021726;28;20037;-67
2021/05/05 09:21:44;;;;;;;1.50;0.50;;;10.90;69.00;;;9.16;68.52;95111.53;5018927;28;20048;-68
2021/05/05 09:24:23;;;;;;;2.05;0.52;;;10.80;67.50;;;9.21;69.36;95110.91;5014013;28;20040;-68
2021/05/05 09:26:55;;;;;;;0.68;0.40;;;10.70;68.80;;;9.22;68.59;95104.63;5047239;28;20112;-68
2021/05/05 09:29:22;;;;;;;1.23;0.50;;;10.80;69.40;;;9.27;69.02;95104.03;5046503;28;20029;-68
2021/05/05 09:31:48;;;;;;;2.03;0.60;;;10.90;68.60;;;9.38;68.31;95108.66;5044546;28;20029;-67
2021/05/05 09:34:14;;;;;;;1.90;1.10;;;11.10;67.80;;;9.46;68.92;95116.28;5029355;28;20044;-66
2021/05/05 09:36:54;;;;;;;3.85;1.02;;;11.30;66.50;;;9.54;67.78;95123.97;5045740;28;20568;-67
2021/05/05 09:39:29;;;;;;;2.53;0.90;;;11.30;64.50;;;9.64;66.59;95120.91;5017484;28;20037;-66
2021/05/05 09:41:55;;;;;;;2.78;0.95;;;11.50;64.30;;;9.67;66.80;95117.84;5021205;28;20033;-67
2021/05/05 09:44:21;;;;;;;2.58;0.90;;;11.30;62.20;;;9.71;66.72;95119.03;4996819;28;20112;-68
2021/05/05 09:46:50;;;;;;;2.63;1.02;;;11.50;63.30;;;9.70;66.44;95115.63;4995735;28;20040;-66
2021/05/05 09:49:26;;;;;;;1.35;0.80;;;11.50;64.50;;;9.64;65.97;95108.56;4997973;28;20087;-69
2021/05/05 09:52:10;;;;;;;3.97;0.98;;;11.10;65.20;;;9.59;66.86;95121.53;5033306;28;20381;-68
2021/05/05 09:54:41;;;;;;;1.73;1.00;;;11.20;65.80;;;9.63;66.29;95121.91;5032889;28;20532;-67
2021/05/05 09:57:19;;;;;;;2.42;0.80;;;11.30;65.60;;;9.70;66.63;95131.38;5013077;28;20124;-70
2021/05/05 10:00:15;;;;;;;2.90;1.05;;;11.30;65.90;;;9.74;67.24;95122.09;5015621;28;20037;-67
2021/05/05 10:02:56;;;;;;;3.20;1.13;;;11.40;67.10;;;9.81;66.61;95120.25;5034084;28;20051;-65
2021/05/05 10:05:29;;;;;;;5.47;1.00;;;11.60;65.70;;;9.86;66.56;95121.44;5008772;28;20042;-63
2021/05/05 10:07:57;;;;;;;3.15;1.00;;;11.50;65.30;;;9.87;66.54;95123.03;4977429;28;20040;-65
2021/05/05 10:10:25;;;;;;;4.60;1.45;;;11.40;65.70;;;9.93;66.51;95133.50;5018634;28;20045;-66
2021/05/05 10:12:53;;;;;;;4.47;1.05;;;11.70;64.20;;;10.09;66.40;95127.78;5030542;28;20057;-65
2021/05/05 10:15:19;;;;;;;3.53;1.02;;;12.10;63.30;;;10.25;65.08;95126.53;4999027;28;20064;-66
2021/05/05 10:17:52;;;;;;;3.42;1.10;;;12.20;61.40;;;10.38;64.78;95126.44;4998524;28;20480;-65
2021/05/05 10:20:23;;;;;;;1.85;0.80;;;12.40;61.30;;;10.40;63.78;95124.41;5001424;28;20029;-66
2021/05/05 10:22:54;;;;;;;3.20;0.80;;;12.10;60.60;;;10.39;64.84;95145.66;5015860;28;20103;-67
2021/05/05 10:25:19;;;;;;;5.57;1.08;;;12.00;62.50;;;10.33;64.30;95136.78;4975175;28;20033;-65
2021/05/05 10:27:45;;;;;;;3.95;1.00;;;11.70;62.30;;;10.25;64.08;95142.31;5048133;28;20554;-66
2021/05/05 10:30:14;;;;;;;2.10;0.93;;;11.50;61.60;;;10.10;63.81;95170.63;5030345;28;20048;-69
2021/05/05 10:32:45;;;;;;;3.65;0.90;;;11.30;63.60;;;9.97;64.32;95165.44;5011997;28;20134;-70
2021/05/05 10:35:15;;;;;;;3.95;0.88;;;11.10;63.50;;;9.78;63.72;95173.19;4981262;28;20043;-67